หน้าหลัก
METAR-TAF:

METAR-TAF

ท่าอากาศยาน :

Northolt, อังกฤษ

ละติจูด: 51-33N, ลองจิจูด: 000-25W, ความสูง: 38 ม.

การสังเกตสภาพอากาศปัจจุบัน

รายงานได้ทำขึ้นเมื่อ 43 นาทีที่แล้ว ณ เวลา 00:20 UTC
ลม 10 นอตจากตะวันออกเฉียงเหนือ
อุณหภูมิ 13°C
ความชื้น 88%
ความกดอากาศ 1018 hPa
ทัศนวิสัย 10 กม. หรือมากกว่า

METAR: EGWU 190020Z AUTO 04010KT 9999 NCD 13/11 Q1018

เวลา: 02:03 (01:03 UTC)

การพยากรณ์

รายงานได้ทำขึ้นเมื่อ 5 ชั่วโมงและ 31 นาทีที่แล้ว ณ เวลา 19:32 UTC
การพยากรณ์มีผลตั้งแต่วันที่ 18 ณ เวลา 21 UTC จนถึงวันที่ 19 ณ เวลา 15 UTC
ลม 6 นอตจากเหนือ/ตะวันตกเฉียงเหนือ
ทัศนวิสัย 10 กม. หรือมากกว่า
มีเมฆน้อยที่ความสูง 4000 ฟุต
ความน่าจะเป็น 30% :
ชั่วคราว
ตั้งแต่วันที่ 19 ณ เวลา 02 UTC จนถึงวันที่ 19 ณ เวลา 06 UTC
มีเมฆกระจายเป็นบางส่วนที่ความสูง 1200 ฟุต
ความน่าจะเป็น 40% :
ชั่วคราว
ตั้งแต่วันที่ 19 ณ เวลา 06 UTC จนถึงวันที่ 19 ณ เวลา 09 UTC
มีเมฆกระจายเป็นบางส่วนที่ความสูง 1800 ฟุต

TAF: EGWU 181932Z 1821/1915 34006KT 9999 FEW040 PROB30 TEMPO 1902/1906 SCT012 PROB40 TEMPO 1906/1909 SCT018

สังเกตการณ์สภาพอากาศและพยากรณ์อากาศของสนามบินมากกว่า 4000 แห่ง (รายงาน METAR และ TAF).

สถานีที่ดูได้จะแสดงไว้ด้วยจุดสีเหลืองและสีแดงบนแผนที่.

เลื่อนเมาส์ไปเหนือจุดเพื่อดูชื่อสถานี.

แล้วคลิกเพื่อดูสังเกตการณ์และการพยากรณ์สภาพอากาศ.

ในการเปลี่ยนแผนที่: คลิกที่ปุ่มสีเขียวที่มีกากบาทสีดำเพื่อซูมเข้า; ที่ปุ่มสีเขียวที่มีขีดเพื่อซูมออก; หรือที่ลูกศรสีเขียวเพื่อไปยังแผนที่ที่อยู่ติดกัน.


METAR-TAF: